KCDR/CDR METAR and TAF weather

Enter ICAO airport designator
Station Type Date Time Source
KCDR METAR 2019/08/19 01:53 UTC NOAA

KCDR 190153Z AUTO 04005KT 10SM CLR 23/16 A2987 RMK AO2 SLP098 T02280161


Station Type Date Time Source
KCDR Decoded METAR 2019/08/19 01:53 UTC NOAA

Station name not available
Aug 18, 2019 - 09:53 PM EDT / 2019.08.19 0153 UTC
Wind: from the NE (040 degrees) at 6 MPH (5 KT):0
Visibility: 10 mile(s):0
Sky conditions: clear
Temperature: 73.0 F (22.8 C)
Dew Point: 61.0 F (16.1 C)
Relative Humidity: 65%
Pressure (altimeter): 29.87 in. Hg (1011 hPa)
ob: KCDR 190153Z AUTO 04005KT 10SM CLR 23/16 A2987 RMK AO2 SLP098 T02280161
cycle: 2

Station Type Date Time Source
KCDR TAF 2019/08/18 18:57 UTC NOAA

TAF KCDR 181755Z 1818/1918 18012KT P6SM BKN035
FM181900 19011KT P6SM SCT040
FM182000 17010KT P6SM SKC
FM191200 18004KT P6SM SCT010
FM191600 24007KT P6SM FEW250

Example: see airport list